sensor_id;sensor_type;location;lat;lon;timestamp;P1;durP1;ratioP1;P2;durP2;ratioP2
57457;SDS011;43304;52.332;6.110;2023-04-29T00:01:37;42.75;;;38.42;;
57457;SDS011;43304;52.332;6.110;2023-04-29T00:04:04;43.00;;;38.75;;
57457;SDS011;43304;52.332;6.110;2023-04-29T00:06:31;43.70;;;39.30;;
57457;SDS011;43304;52.332;6.110;2023-04-29T00:08:58;44.75;;;40.15;;
57457;SDS011;43304;52.332;6.110;2023-04-29T00:11:25;44.22;;;39.78;;
57457;SDS011;43304;52.332;6.110;2023-04-29T00:13:52;44.00;;;39.60;;
57457;SDS011;43304;52.332;6.110;2023-04-29T00:16:19;44.72;;;40.28;;
57457;SDS011;43304;52.332;6.110;2023-04-29T00:18:47;44.63;;;40.03;;
57457;SDS011;43304;52.332;6.110;2023-04-29T00:21:14;45.07;;;40.37;;
57457;SDS011;43304;52.332;6.110;2023-04-29T00:23:41;45.47;;;40.87;;
57457;SDS011;43304;52.332;6.110;2023-04-29T00:26:08;46.13;;;41.63;;
57457;SDS011;43304;52.332;6.110;2023-04-29T00:28:34;45.70;;;41.13;;
57457;SDS011;43304;52.332;6.110;2023-04-29T00:31:01;45.77;;;41.17;;
57457;SDS011;43304;52.332;6.110;2023-04-29T00:33:28;47.45;;;42.65;;
57457;SDS011;43304;52.332;6.110;2023-04-29T00:35:56;46.95;;;42.25;;
57457;SDS011;43304;52.332;6.110;2023-04-29T00:38:23;47.95;;;43.15;;
57457;SDS011;43304;52.332;6.110;2023-04-29T00:40:50;48.13;;;43.13;;
57457;SDS011;43304;52.332;6.110;2023-04-29T00:43:17;48.90;;;43.90;;
57457;SDS011;43304;52.332;6.110;2023-04-29T00:45:44;49.53;;;44.23;;
57457;SDS011;43304;52.332;6.110;2023-04-29T00:48:12;49.50;;;44.53;;
57457;SDS011;43304;52.332;6.110;2023-04-29T00:50:40;49.13;;;44.13;;
57457;SDS011;43304;52.332;6.110;2023-04-29T00:53:08;47.00;;;42.17;;
57457;SDS011;43304;52.332;6.110;2023-04-29T00:55:38;47.45;;;42.65;;
57457;SDS011;43304;52.332;6.110;2023-04-29T00:58:05;45.50;;;40.83;;
57457;SDS011;43304;52.332;6.110;2023-04-29T01:00:32;46.13;;;41.33;;
57457;SDS011;43304;52.332;6.110;2023-04-29T01:03:00;46.00;;;41.30;;
57457;SDS011;43304;52.332;6.110;2023-04-29T01:05:27;45.25;;;40.50;;
57457;SDS011;43304;52.332;6.110;2023-04-29T01:10:41;44.80;;;40.10;;
57457;SDS011;43304;52.332;6.110;2023-04-29T01:16:00;43.17;;;38.60;;
57457;SDS011;43304;52.332;6.110;2023-04-29T01:18:40;42.33;;;38.03;;
57457;SDS011;43304;52.332;6.110;2023-04-29T01:21:09;42.90;;;38.35;;
57457;SDS011;43304;52.332;6.110;2023-04-29T01:23:36;41.63;;;37.43;;
57457;SDS011;43304;52.332;6.110;2023-04-29T01:26:03;40.83;;;36.73;;
57457;SDS011;43304;52.332;6.110;2023-04-29T01:28:53;43.40;;;38.67;;
57457;SDS011;43304;52.332;6.110;2023-04-29T01:31:45;43.13;;;38.55;;
57457;SDS011;43304;52.332;6.110;2023-04-29T01:34:41;43.40;;;38.72;;
57457;SDS011;43304;52.332;6.110;2023-04-29T01:37:18;44.75;;;39.55;;
57457;SDS011;43304;52.332;6.110;2023-04-29T01:40:08;44.90;;;39.37;;
57457;SDS011;43304;52.332;6.110;2023-04-29T01:42:39;44.75;;;39.92;;
57457;SDS011;43304;52.332;6.110;2023-04-29T01:45:13;44.33;;;39.53;;
57457;SDS011;43304;52.332;6.110;2023-04-29T01:47:43;45.42;;;40.65;;
57457;SDS011;43304;52.332;6.110;2023-04-29T01:50:12;43.30;;;38.75;;
57457;SDS011;43304;52.332;6.110;2023-04-29T01:52:39;43.77;;;38.93;;
57457;SDS011;43304;52.332;6.110;2023-04-29T01:55:06;42.63;;;38.03;;
57457;SDS011;43304;52.332;6.110;2023-04-29T01:57:33;43.03;;;38.33;;
57457;SDS011;43304;52.332;6.110;2023-04-29T02:00:00;43.05;;;38.35;;
57457;SDS011;43304;52.332;6.110;2023-04-29T02:02:28;42.28;;;37.75;;
57457;SDS011;43304;52.332;6.110;2023-04-29T02:04:56;41.90;;;37.40;;
57457;SDS011;43304;52.332;6.110;2023-04-29T02:07:23;42.13;;;37.70;;
57457;SDS011;43304;52.332;6.110;2023-04-29T02:09:50;42.42;;;38.03;;
57457;SDS011;43304;52.332;6.110;2023-04-29T02:12:17;42.45;;;37.85;;
57457;SDS011;43304;52.332;6.110;2023-04-29T02:14:44;40.67;;;36.47;;
57457;SDS011;43304;52.332;6.110;2023-04-29T02:17:13;39.13;;;34.92;;
57457;SDS011;43304;52.332;6.110;2023-04-29T02:19:40;38.37;;;34.50;;
57457;SDS011;43304;52.332;6.110;2023-04-29T02:22:07;37.70;;;33.90;;
57457;SDS011;43304;52.332;6.110;2023-04-29T02:24:34;38.45;;;34.42;;
57457;SDS011;43304;52.332;6.110;2023-04-29T02:27:02;37.40;;;33.65;;
57457;SDS011;43304;52.332;6.110;2023-04-29T02:29:31;37.22;;;33.50;;
57457;SDS011;43304;52.332;6.110;2023-04-29T02:31:59;37.22;;;33.53;;
57457;SDS011;43304;52.332;6.110;2023-04-29T02:34:26;35.63;;;32.05;;
57457;SDS011;43304;52.332;6.110;2023-04-29T02:36:53;33.72;;;30.42;;
57457;SDS011;43304;52.332;6.110;2023-04-29T02:39:20;35.38;;;31.83;;
57457;SDS011;43304;52.332;6.110;2023-04-29T02:41:47;34.75;;;31.23;;
57457;SDS011;43304;52.332;6.110;2023-04-29T02:44:14;34.33;;;30.95;;
57457;SDS011;43304;52.332;6.110;2023-04-29T02:46:41;33.85;;;30.52;;
57457;SDS011;43304;52.332;6.110;2023-04-29T02:49:11;31.45;;;28.38;;
57457;SDS011;43304;52.332;6.110;2023-04-29T02:51:39;30.95;;;27.95;;
57457;SDS011;43304;52.332;6.110;2023-04-29T02:54:07;31.27;;;28.17;;
57457;SDS011;43304;52.332;6.110;2023-04-29T02:56:34;31.23;;;28.23;;
57457;SDS011;43304;52.332;6.110;2023-04-29T02:59:01;30.55;;;27.55;;
57457;SDS011;43304;52.332;6.110;2023-04-29T03:01:28;29.95;;;26.98;;
57457;SDS011;43304;52.332;6.110;2023-04-29T03:03:55;28.95;;;26.05;;
57457;SDS011;43304;52.332;6.110;2023-04-29T03:06:22;29.83;;;26.85;;
57457;SDS011;43304;52.332;6.110;2023-04-29T03:08:49;29.45;;;26.58;;
57457;SDS011;43304;52.332;6.110;2023-04-29T03:11:16;29.45;;;26.58;;
57457;SDS011;43304;52.332;6.110;2023-04-29T03:13:43;28.67;;;26.08;;
57457;SDS011;43304;52.332;6.110;2023-04-29T03:16:11;29.83;;;26.85;;
57457;SDS011;43304;52.332;6.110;2023-04-29T03:18:42;28.58;;;25.80;;
57457;SDS011;43304;52.332;6.110;2023-04-29T03:21:10;30.20;;;27.20;;
57457;SDS011;43304;52.332;6.110;2023-04-29T03:23:37;28.88;;;25.88;;
57457;SDS011;43304;52.332;6.110;2023-04-29T03:26:08;28.67;;;25.83;;
57457;SDS011;43304;52.332;6.110;2023-04-29T03:28:36;27.98;;;25.38;;
57457;SDS011;43304;52.332;6.110;2023-04-29T03:31:03;27.52;;;24.92;;
57457;SDS011;43304;52.332;6.110;2023-04-29T03:33:30;27.67;;;24.97;;
57457;SDS011;43304;52.332;6.110;2023-04-29T03:35:57;27.05;;;24.30;;
57457;SDS011;43304;52.332;6.110;2023-04-29T03:38:24;26.98;;;24.30;;
57457;SDS011;43304;52.332;6.110;2023-04-29T03:40:54;28.00;;;25.20;;
57457;SDS011;43304;52.332;6.110;2023-04-29T03:43:21;28.33;;;25.52;;
57457;SDS011;43304;52.332;6.110;2023-04-29T03:45:48;28.52;;;25.70;;
57457;SDS011;43304;52.332;6.110;2023-04-29T03:48:15;27.98;;;25.02;;
57457;SDS011;43304;52.332;6.110;2023-04-29T03:50:42;28.70;;;25.77;;
57457;SDS011;43304;52.332;6.110;2023-04-29T03:53:10;28.27;;;25.48;;
57457;SDS011;43304;52.332;6.110;2023-04-29T03:55:37;28.90;;;25.85;;
57457;SDS011;43304;52.332;6.110;2023-04-29T03:58:04;29.80;;;26.67;;
57457;SDS011;43304;52.332;6.110;2023-04-29T04:00:31;29.77;;;26.65;;
57457;SDS011;43304;52.332;6.110;2023-04-29T04:02:58;29.47;;;26.53;;
57457;SDS011;43304;52.332;6.110;2023-04-29T04:05:30;29.75;;;26.58;;
57457;SDS011;43304;52.332;6.110;2023-04-29T04:07:57;30.75;;;27.15;;
57457;SDS011;43304;52.332;6.110;2023-04-29T04:10:26;30.15;;;27.20;;
57457;SDS011;43304;52.332;6.110;2023-04-29T04:12:54;30.95;;;27.85;;
57457;SDS011;43304;52.332;6.110;2023-04-29T04:15:21;30.42;;;27.33;;
57457;SDS011;43304;52.332;6.110;2023-04-29T04:17:48;30.13;;;27.10;;
57457;SDS011;43304;52.332;6.110;2023-04-29T04:20:15;31.52;;;28.17;;
57457;SDS011;43304;52.332;6.110;2023-04-29T04:22:42;31.42;;;28.27;;
57457;SDS011;43304;52.332;6.110;2023-04-29T04:25:09;31.40;;;28.10;;
57457;SDS011;43304;52.332;6.110;2023-04-29T04:27:36;30.67;;;27.63;;
57457;SDS011;43304;52.332;6.110;2023-04-29T04:30:04;29.33;;;26.45;;
57457;SDS011;43304;52.332;6.110;2023-04-29T04:32:31;29.93;;;26.90;;
57457;SDS011;43304;52.332;6.110;2023-04-29T04:34:58;30.08;;;26.92;;
57457;SDS011;43304;52.332;6.110;2023-04-29T04:37:25;28.85;;;25.95;;
57457;SDS011;43304;52.332;6.110;2023-04-29T04:39:52;29.10;;;26.20;;
57457;SDS011;43304;52.332;6.110;2023-04-29T04:42:20;29.23;;;26.33;;
57457;SDS011;43304;52.332;6.110;2023-04-29T04:44:48;29.13;;;26.17;;
57457;SDS011;43304;52.332;6.110;2023-04-29T04:47:15;29.00;;;26.02;;
57457;SDS011;43304;52.332;6.110;2023-04-29T04:49:42;29.20;;;26.17;;
57457;SDS011;43304;52.332;6.110;2023-04-29T04:52:09;27.42;;;24.65;;
57457;SDS011;43304;52.332;6.110;2023-04-29T04:54:37;28.38;;;25.50;;
57457;SDS011;43304;52.332;6.110;2023-04-29T04:57:04;27.92;;;25.13;;
57457;SDS011;43304;52.332;6.110;2023-04-29T04:59:32;28.35;;;25.40;;
57457;SDS011;43304;52.332;6.110;2023-04-29T05:01:59;28.60;;;25.70;;
57457;SDS011;43304;52.332;6.110;2023-04-29T05:04:26;29.00;;;25.65;;
57457;SDS011;43304;52.332;6.110;2023-04-29T05:06:53;28.48;;;25.52;;
57457;SDS011;43304;52.332;6.110;2023-04-29T05:09:20;28.90;;;25.85;;
57457;SDS011;43304;52.332;6.110;2023-04-29T05:11:47;28.50;;;25.48;;
57457;SDS011;43304;52.332;6.110;2023-04-29T05:14:14;29.25;;;26.05;;
57457;SDS011;43304;52.332;6.110;2023-04-29T05:16:42;28.63;;;25.52;;
57457;SDS011;43304;52.332;6.110;2023-04-29T05:19:10;30.00;;;26.80;;
57457;SDS011;43304;52.332;6.110;2023-04-29T05:21:38;28.52;;;25.60;;
57457;SDS011;43304;52.332;6.110;2023-04-29T05:24:05;29.20;;;26.08;;
57457;SDS011;43304;52.332;6.110;2023-04-29T05:26:32;28.63;;;25.67;;
57457;SDS011;43304;52.332;6.110;2023-04-29T05:28:59;30.75;;;27.42;;
57457;SDS011;43304;52.332;6.110;2023-04-29T05:31:26;27.48;;;24.50;;
57457;SDS011;43304;52.332;6.110;2023-04-29T05:33:54;29.65;;;26.48;;
57457;SDS011;43304;52.332;6.110;2023-04-29T05:36:21;29.90;;;26.77;;
57457;SDS011;43304;52.332;6.110;2023-04-29T05:38:48;28.77;;;25.77;;
57457;SDS011;43304;52.332;6.110;2023-04-29T05:41:15;29.33;;;25.75;;
57457;SDS011;43304;52.332;6.110;2023-04-29T05:43:42;28.77;;;25.75;;
57457;SDS011;43304;52.332;6.110;2023-04-29T05:46:09;28.08;;;25.15;;
57457;SDS011;43304;52.332;6.110;2023-04-29T05:48:36;28.90;;;25.63;;
57457;SDS011;43304;52.332;6.110;2023-04-29T05:51:03;29.10;;;25.90;;
57457;SDS011;43304;52.332;6.110;2023-04-29T05:53:30;28.23;;;25.23;;
57457;SDS011;43304;52.332;6.110;2023-04-29T05:55:58;27.70;;;24.90;;
57457;SDS011;43304;52.332;6.110;2023-04-29T05:58:25;27.27;;;24.48;;
57457;SDS011;43304;52.332;6.110;2023-04-29T06:00:52;27.10;;;24.20;;
57457;SDS011;43304;52.332;6.110;2023-04-29T06:03:19;27.27;;;24.30;;
57457;SDS011;43304;52.332;6.110;2023-04-29T06:05:47;26.45;;;23.65;;
57457;SDS011;43304;52.332;6.110;2023-04-29T06:08:14;24.97;;;22.57;;
57457;SDS011;43304;52.332;6.110;2023-04-29T06:10:41;25.13;;;22.42;;
57457;SDS011;43304;52.332;6.110;2023-04-29T06:13:08;25.95;;;22.75;;
57457;SDS011;43304;52.332;6.110;2023-04-29T06:15:35;25.80;;;22.77;;
57457;SDS011;43304;52.332;6.110;2023-04-29T06:18:03;24.60;;;21.95;;
57457;SDS011;43304;52.332;6.110;2023-04-29T06:20:29;24.67;;;22.10;;
57457;SDS011;43304;52.332;6.110;2023-04-29T06:22:56;24.50;;;21.73;;
57457;SDS011;43304;52.332;6.110;2023-04-29T06:25:23;23.80;;;21.30;;
57457;SDS011;43304;52.332;6.110;2023-04-29T06:27:51;25.77;;;22.65;;
57457;SDS011;43304;52.332;6.110;2023-04-29T06:30:18;23.40;;;20.63;;
57457;SDS011;43304;52.332;6.110;2023-04-29T06:32:45;23.90;;;20.90;;
57457;SDS011;43304;52.332;6.110;2023-04-29T06:35:12;23.50;;;20.57;;
57457;SDS011;43304;52.332;6.110;2023-04-29T06:37:39;22.63;;;20.17;;
57457;SDS011;43304;52.332;6.110;2023-04-29T06:40:06;21.73;;;19.42;;
57457;SDS011;43304;52.332;6.110;2023-04-29T06:42:33;21.60;;;19.10;;
57457;SDS011;43304;52.332;6.110;2023-04-29T06:45:00;21.70;;;19.35;;
57457;SDS011;43304;52.332;6.110;2023-04-29T06:47:27;20.93;;;18.83;;
57457;SDS011;43304;52.332;6.110;2023-04-29T06:49:55;20.88;;;18.70;;
57457;SDS011;43304;52.332;6.110;2023-04-29T06:52:22;20.90;;;18.65;;
57457;SDS011;43304;52.332;6.110;2023-04-29T06:54:49;20.60;;;18.58;;
57457;SDS011;43304;52.332;6.110;2023-04-29T06:57:16;19.85;;;17.73;;
57457;SDS011;43304;52.332;6.110;2023-04-29T06:59:43;19.40;;;17.05;;
57457;SDS011;43304;52.332;6.110;2023-04-29T07:02:10;19.02;;;16.95;;
57457;SDS011;43304;52.332;6.110;2023-04-29T07:04:37;19.98;;;17.88;;
57457;SDS011;43304;52.332;6.110;2023-04-29T07:07:04;18.58;;;16.58;;
57457;SDS011;43304;52.332;6.110;2023-04-29T07:09:31;17.53;;;15.73;;
57457;SDS011;43304;52.332;6.110;2023-04-29T07:11:58;16.50;;;14.73;;
57457;SDS011;43304;52.332;6.110;2023-04-29T07:14:25;17.45;;;15.65;;
57457;SDS011;43304;52.332;6.110;2023-04-29T07:16:52;17.40;;;15.35;;
57457;SDS011;43304;52.332;6.110;2023-04-29T07:19:20;16.13;;;14.45;;
57457;SDS011;43304;52.332;6.110;2023-04-29T07:21:47;17.10;;;15.32;;
57457;SDS011;43304;52.332;6.110;2023-04-29T07:24:14;16.67;;;14.88;;
57457;SDS011;43304;52.332;6.110;2023-04-29T07:26:42;18.70;;;15.15;;
57457;SDS011;43304;52.332;6.110;2023-04-29T07:29:10;17.17;;;15.40;;
57457;SDS011;43304;52.332;6.110;2023-04-29T07:31:37;16.90;;;15.20;;
57457;SDS011;43304;52.332;6.110;2023-04-29T07:34:04;16.88;;;15.00;;
57457;SDS011;43304;52.332;6.110;2023-04-29T07:36:31;17.48;;;14.93;;
57457;SDS011;43304;52.332;6.110;2023-04-29T07:39:00;15.60;;;14.05;;
57457;SDS011;43304;52.332;6.110;2023-04-29T07:41:28;15.60;;;14.00;;
57457;SDS011;43304;52.332;6.110;2023-04-29T07:43:55;16.80;;;14.38;;
57457;SDS011;43304;52.332;6.110;2023-04-29T07:46:22;15.85;;;14.10;;
57457;SDS011;43304;52.332;6.110;2023-04-29T07:48:49;15.73;;;13.52;;
57457;SDS011;43304;52.332;6.110;2023-04-29T07:51:16;14.70;;;13.02;;
57457;SDS011;43304;52.332;6.110;2023-04-29T07:53:45;14.95;;;12.95;;
57457;SDS011;43304;52.332;6.110;2023-04-29T07:56:12;15.75;;;12.43;;
57457;SDS011;43304;52.332;6.110;2023-04-29T07:58:39;13.65;;;12.25;;
57457;SDS011;43304;52.332;6.110;2023-04-29T08:01:07;13.68;;;11.63;;
57457;SDS011;43304;52.332;6.110;2023-04-29T08:03:38;13.17;;;11.77;;
57457;SDS011;43304;52.332;6.110;2023-04-29T08:06:07;13.57;;;11.57;;
57457;SDS011;43304;52.332;6.110;2023-04-29T08:08:34;12.60;;;11.30;;
57457;SDS011;43304;52.332;6.110;2023-04-29T08:11:02;12.18;;;10.60;;
57457;SDS011;43304;52.332;6.110;2023-04-29T08:13:29;11.50;;;10.27;;
57457;SDS011;43304;52.332;6.110;2023-04-29T08:15:56;12.02;;;10.65;;
57457;SDS011;43304;52.332;6.110;2023-04-29T08:18:23;11.32;;;10.20;;
57457;SDS011;43304;52.332;6.110;2023-04-29T08:20:50;12.35;;;9.60;;
57457;SDS011;43304;52.332;6.110;2023-04-29T08:23:27;10.88;;;9.63;;
57457;SDS011;43304;52.332;6.110;2023-04-29T08:25:54;10.73;;;9.73;;
57457;SDS011;43304;52.332;6.110;2023-04-29T08:28:21;11.60;;;9.57;;
57457;SDS011;43304;52.332;6.110;2023-04-29T08:30:48;10.68;;;9.45;;
57457;SDS011;43304;52.332;6.110;2023-04-29T08:33:15;10.35;;;9.23;;
57457;SDS011;43304;52.332;6.110;2023-04-29T08:35:42;12.85;;;9.48;;
57457;SDS011;43304;52.332;6.110;2023-04-29T08:38:09;9.57;;;8.60;;
57457;SDS011;43304;52.332;6.110;2023-04-29T08:40:41;10.97;;;9.70;;
57457;SDS011;43304;52.332;6.110;2023-04-29T08:43:12;11.57;;;9.52;;
57457;SDS011;43304;52.332;6.110;2023-04-29T08:45:41;10.17;;;9.03;;
57457;SDS011;43304;52.332;6.110;2023-04-29T08:48:09;11.82;;;8.65;;
57457;SDS011;43304;52.332;6.110;2023-04-29T08:50:37;9.70;;;8.70;;
57457;SDS011;43304;52.332;6.110;2023-04-29T08:53:06;11.30;;;8.63;;
57457;SDS011;43304;52.332;6.110;2023-04-29T08:55:34;9.93;;;8.82;;
57457;SDS011;43304;52.332;6.110;2023-04-29T08:58:02;10.35;;;9.02;;
57457;SDS011;43304;52.332;6.110;2023-04-29T09:00:29;9.27;;;8.38;;
57457;SDS011;43304;52.332;6.110;2023-04-29T09:02:57;9.38;;;8.40;;
57457;SDS011;43304;52.332;6.110;2023-04-29T09:05:26;10.00;;;8.27;;
57457;SDS011;43304;52.332;6.110;2023-04-29T09:07:57;9.20;;;8.10;;
57457;SDS011;43304;52.332;6.110;2023-04-29T09:10:25;10.10;;;8.10;;
57457;SDS011;43304;52.332;6.110;2023-04-29T09:12:54;8.77;;;7.60;;
57457;SDS011;43304;52.332;6.110;2023-04-29T09:15:23;9.27;;;7.60;;
57457;SDS011;43304;52.332;6.110;2023-04-29T09:17:50;10.95;;;7.72;;
57457;SDS011;43304;52.332;6.110;2023-04-29T09:22:48;8.63;;;7.57;;
57457;SDS011;43304;52.332;6.110;2023-04-29T09:25:16;9.57;;;7.55;;
57457;SDS011;43304;52.332;6.110;2023-04-29T09:27:43;8.23;;;7.37;;
57457;SDS011;43304;52.332;6.110;2023-04-29T09:30:10;9.30;;;7.53;;
57457;SDS011;43304;52.332;6.110;2023-04-29T09:32:39;9.10;;;7.63;;
57457;SDS011;43304;52.332;6.110;2023-04-29T09:37:53;8.00;;;7.20;;
57457;SDS011;43304;52.332;6.110;2023-04-29T09:40:34;7.90;;;7.10;;
57457;SDS011;43304;52.332;6.110;2023-04-29T09:43:22;8.77;;;7.40;;
57457;SDS011;43304;52.332;6.110;2023-04-29T09:45:49;9.77;;;7.60;;
57457;SDS011;43304;52.332;6.110;2023-04-29T09:48:16;7.80;;;6.95;;
57457;SDS011;43304;52.332;6.110;2023-04-29T09:50:44;8.88;;;7.10;;
57457;SDS011;43304;52.332;6.110;2023-04-29T09:53:28;7.53;;;6.82;;
57457;SDS011;43304;52.332;6.110;2023-04-29T09:55:58;9.15;;;6.93;;
57457;SDS011;43304;52.332;6.110;2023-04-29T09:58:26;8.10;;;6.60;;
57457;SDS011;43304;52.332;6.110;2023-04-29T10:00:59;8.13;;;7.22;;
57457;SDS011;43304;52.332;6.110;2023-04-29T10:03:30;7.90;;;7.10;;
57457;SDS011;43304;52.332;6.110;2023-04-29T10:05:59;8.85;;;7.07;;
57457;SDS011;43304;52.332;6.110;2023-04-29T10:08:30;9.80;;;7.43;;
57457;SDS011;43304;52.332;6.110;2023-04-29T10:10:59;8.82;;;8.00;;
57457;SDS011;43304;52.332;6.110;2023-04-29T10:13:27;9.00;;;8.10;;
57457;SDS011;43304;52.332;6.110;2023-04-29T10:15:57;7.93;;;7.13;;
57457;SDS011;43304;52.332;6.110;2023-04-29T10:18:35;8.00;;;7.20;;
57457;SDS011;43304;52.332;6.110;2023-04-29T10:21:07;7.10;;;6.40;;
57457;SDS011;43304;52.332;6.110;2023-04-29T10:23:35;7.82;;;5.90;;
57457;SDS011;43304;52.332;6.110;2023-04-29T10:26:03;7.53;;;6.50;;
57457;SDS011;43304;52.332;6.110;2023-04-29T10:28:31;8.55;;;6.97;;
57457;SDS011;43304;52.332;6.110;2023-04-29T10:31:00;7.35;;;6.65;;
57457;SDS011;43304;52.332;6.110;2023-04-29T10:33:30;8.57;;;7.30;;
57457;SDS011;43304;52.332;6.110;2023-04-29T10:35:59;8.23;;;7.40;;
57457;SDS011;43304;52.332;6.110;2023-04-29T10:38:38;9.27;;;6.97;;
57457;SDS011;43304;52.332;6.110;2023-04-29T10:41:08;7.25;;;6.55;;
57457;SDS011;43304;52.332;6.110;2023-04-29T10:43:39;6.95;;;6.18;;
57457;SDS011;43304;52.332;6.110;2023-04-29T10:46:16;7.55;;;6.70;;
57457;SDS011;43304;52.332;6.110;2023-04-29T10:48:43;8.25;;;6.68;;
57457;SDS011;43304;52.332;6.110;2023-04-29T10:51:11;7.80;;;7.00;;
57457;SDS011;43304;52.332;6.110;2023-04-29T10:56:42;7.60;;;5.90;;
57457;SDS011;43304;52.332;6.110;2023-04-29T10:59:14;6.30;;;5.70;;
57457;SDS011;43304;52.332;6.110;2023-04-29T11:02:00;7.47;;;6.40;;
57457;SDS011;43304;52.332;6.110;2023-04-29T11:04:27;6.93;;;5.82;;
57457;SDS011;43304;52.332;6.110;2023-04-29T11:06:57;8.20;;;6.40;;
57457;SDS011;43304;52.332;6.110;2023-04-29T11:09:29;5.60;;;4.97;;
57457;SDS011;43304;52.332;6.110;2023-04-29T11:14:28;7.05;;;5.70;;
57457;SDS011;43304;52.332;6.110;2023-04-29T11:17:00;7.23;;;5.47;;
57457;SDS011;43304;52.332;6.110;2023-04-29T11:19:30;6.22;;;5.60;;
57457;SDS011;43304;52.332;6.110;2023-04-29T11:24:47;6.97;;;5.22;;
57457;SDS011;43304;52.332;6.110;2023-04-29T11:27:28;5.93;;;5.23;;
57457;SDS011;43304;52.332;6.110;2023-04-29T11:29:57;5.80;;;5.00;;
57457;SDS011;43304;52.332;6.110;2023-04-29T11:32:29;7.15;;;5.55;;
57457;SDS011;43304;52.332;6.110;2023-04-29T11:35:16;6.72;;;5.38;;
57457;SDS011;43304;52.332;6.110;2023-04-29T11:37:45;8.80;;;5.93;;
57457;SDS011;43304;52.332;6.110;2023-04-29T11:40:13;6.40;;;5.18;;
57457;SDS011;43304;52.332;6.110;2023-04-29T11:42:42;6.03;;;4.85;;
57457;SDS011;43304;52.332;6.110;2023-04-29T11:45:10;5.50;;;4.70;;
57457;SDS011;43304;52.332;6.110;2023-04-29T11:47:40;5.53;;;4.70;;
57457;SDS011;43304;52.332;6.110;2023-04-29T11:50:12;6.23;;;4.70;;
57457;SDS011;43304;52.332;6.110;2023-04-29T11:52:41;7.00;;;4.80;;
57457;SDS011;43304;52.332;6.110;2023-04-29T11:55:08;6.03;;;4.80;;
57457;SDS011;43304;52.332;6.110;2023-04-29T11:57:35;7.80;;;5.50;;
57457;SDS011;43304;52.332;6.110;2023-04-29T12:00:03;7.65;;;5.15;;
57457;SDS011;43304;52.332;6.110;2023-04-29T12:02:33;4.95;;;4.45;;
57457;SDS011;43304;52.332;6.110;2023-04-29T12:05:04;5.10;;;4.60;;
57457;SDS011;43304;52.332;6.110;2023-04-29T12:07:36;6.13;;;4.32;;
57457;SDS011;43304;52.332;6.110;2023-04-29T12:10:07;4.50;;;3.40;;
57457;SDS011;43304;52.332;6.110;2023-04-29T12:12:37;4.88;;;3.40;;
57457;SDS011;43304;52.332;6.110;2023-04-29T12:15:06;4.95;;;4.00;;
57457;SDS011;43304;52.332;6.110;2023-04-29T12:17:35;5.03;;;4.10;;
57457;SDS011;43304;52.332;6.110;2023-04-29T12:20:02;5.18;;;4.13;;
57457;SDS011;43304;52.332;6.110;2023-04-29T12:22:30;5.10;;;4.10;;
57457;SDS011;43304;52.332;6.110;2023-04-29T12:24:57;5.80;;;3.70;;
57457;SDS011;43304;52.332;6.110;2023-04-29T12:27:25;3.90;;;3.50;;
57457;SDS011;43304;52.332;6.110;2023-04-29T12:29:52;6.78;;;4.40;;
57457;SDS011;43304;52.332;6.110;2023-04-29T12:32:23;5.85;;;4.82;;
57457;SDS011;43304;52.332;6.110;2023-04-29T12:34:53;5.22;;;4.43;;
57457;SDS011;43304;52.332;6.110;2023-04-29T12:37:25;8.70;;;5.30;;
57457;SDS011;43304;52.332;6.110;2023-04-29T12:39:53;6.43;;;5.00;;
57457;SDS011;43304;52.332;6.110;2023-04-29T12:42:21;6.07;;;4.60;;
57457;SDS011;43304;52.332;6.110;2023-04-29T12:44:48;5.45;;;3.67;;
57457;SDS011;43304;52.332;6.110;2023-04-29T12:47:19;3.80;;;3.17;;
57457;SDS011;43304;52.332;6.110;2023-04-29T12:49:47;4.78;;;2.90;;
57457;SDS011;43304;52.332;6.110;2023-04-29T12:52:15;6.10;;;4.10;;
57457;SDS011;43304;52.332;6.110;2023-04-29T12:54:44;5.70;;;3.88;;
57457;SDS011;43304;52.332;6.110;2023-04-29T12:57:11;5.72;;;4.43;;
57457;SDS011;43304;52.332;6.110;2023-04-29T12:59:41;5.63;;;4.70;;
57457;SDS011;43304;52.332;6.110;2023-04-29T13:02:08;6.53;;;4.80;;
57457;SDS011;43304;52.332;6.110;2023-04-29T13:04:38;120.88;;;35.67;;
57457;SDS011;43304;52.332;6.110;2023-04-29T13:07:06;5.75;;;4.00;;
57457;SDS011;43304;52.332;6.110;2023-04-29T13:09:35;4.97;;;4.13;;
57457;SDS011;43304;52.332;6.110;2023-04-29T13:12:03;4.80;;;3.88;;
57457;SDS011;43304;52.332;6.110;2023-04-29T13:14:31;4.88;;;4.18;;
57457;SDS011;43304;52.332;6.110;2023-04-29T13:16:58;5.35;;;4.10;;
57457;SDS011;43304;52.332;6.110;2023-04-29T13:19:26;5.10;;;4.60;;
57457;SDS011;43304;52.332;6.110;2023-04-29T13:22:14;4.60;;;4.10;;
57457;SDS011;43304;52.332;6.110;2023-04-29T13:24:41;5.77;;;3.87;;
57457;SDS011;43304;52.332;6.110;2023-04-29T13:27:09;4.95;;;4.00;;
57457;SDS011;43304;52.332;6.110;2023-04-29T13:29:36;5.30;;;4.20;;
57457;SDS011;43304;52.332;6.110;2023-04-29T13:32:04;5.45;;;4.15;;
57457;SDS011;43304;52.332;6.110;2023-04-29T13:34:31;5.73;;;4.30;;
57457;SDS011;43304;52.332;6.110;2023-04-29T13:37:01;5.43;;;4.25;;
57457;SDS011;43304;52.332;6.110;2023-04-29T13:39:29;5.73;;;4.30;;
57457;SDS011;43304;52.332;6.110;2023-04-29T13:41:58;5.90;;;4.60;;
57457;SDS011;43304;52.332;6.110;2023-04-29T13:44:25;6.82;;;4.85;;
57457;SDS011;43304;52.332;6.110;2023-04-29T13:47:14;5.57;;;4.53;;
57457;SDS011;43304;52.332;6.110;2023-04-29T13:49:50;5.20;;;4.70;;
57457;SDS011;43304;52.332;6.110;2023-04-29T13:52:20;7.57;;;4.90;;
57457;SDS011;43304;52.332;6.110;2023-04-29T13:54:50;6.15;;;4.90;;
57457;SDS011;43304;52.332;6.110;2023-04-29T13:57:37;5.88;;;4.85;;
57457;SDS011;43304;52.332;6.110;2023-04-29T14:00:24;8.90;;;5.15;;
57457;SDS011;43304;52.332;6.110;2023-04-29T14:03:11;7.57;;;4.72;;
57457;SDS011;43304;52.332;6.110;2023-04-29T14:05:38;6.32;;;4.45;;
57457;SDS011;43304;52.332;6.110;2023-04-29T14:08:05;5.83;;;4.87;;
57457;SDS011;43304;52.332;6.110;2023-04-29T14:10:32;7.32;;;5.10;;
57457;SDS011;43304;52.332;6.110;2023-04-29T14:13:00;6.80;;;5.00;;
57457;SDS011;43304;52.332;6.110;2023-04-29T14:15:27;6.53;;;4.68;;
57457;SDS011;43304;52.332;6.110;2023-04-29T14:17:54;5.80;;;4.43;;
57457;SDS011;43304;52.332;6.110;2023-04-29T14:20:21;6.30;;;4.38;;
57457;SDS011;43304;52.332;6.110;2023-04-29T14:22:48;6.47;;;4.45;;
57457;SDS011;43304;52.332;6.110;2023-04-29T14:25:15;5.67;;;4.53;;
57457;SDS011;43304;52.332;6.110;2023-04-29T14:27:42;5.68;;;4.25;;
57457;SDS011;43304;52.332;6.110;2023-04-29T14:30:09;5.47;;;4.30;;
57457;SDS011;43304;52.332;6.110;2023-04-29T14:32:37;5.93;;;4.18;;
57457;SDS011;43304;52.332;6.110;2023-04-29T14:35:04;6.00;;;4.20;;
57457;SDS011;43304;52.332;6.110;2023-04-29T14:37:31;5.20;;;4.03;;
57457;SDS011;43304;52.332;6.110;2023-04-29T14:39:58;5.63;;;4.03;;
57457;SDS011;43304;52.332;6.110;2023-04-29T14:42:26;5.10;;;3.92;;
57457;SDS011;43304;52.332;6.110;2023-04-29T14:44:53;5.40;;;3.92;;
57457;SDS011;43304;52.332;6.110;2023-04-29T14:47:20;5.65;;;4.30;;
57457;SDS011;43304;52.332;6.110;2023-04-29T14:49:47;6.63;;;4.10;;
57457;SDS011;43304;52.332;6.110;2023-04-29T14:52:14;6.20;;;3.92;;
57457;SDS011;43304;52.332;6.110;2023-04-29T14:54:42;5.03;;;4.20;;
57457;SDS011;43304;52.332;6.110;2023-04-29T14:57:09;5.50;;;4.00;;
57457;SDS011;43304;52.332;6.110;2023-04-29T14:59:36;6.50;;;4.00;;
57457;SDS011;43304;52.332;6.110;2023-04-29T15:02:03;4.73;;;3.93;;